Stolt Effort — ZCSP6 — position and weather

sailwx.info

Track history (hours):
 
Tides and Currents Weather Stations Pressure Air Temp Water Temp Dewpoint Dewpoint Depression Visibility Wind Speed Wind Dir Waves Ship Positions

Stolt Effort

Last reported at 2017-Feb-21 11:33 UTC. Time now 2017-Feb-21 14:34 UTC.
Position N 01°15' E 103°41'.

Length 176 m; draft 7.6 m.

Type: Ship. MMSI: 319445000.

Date/timePositionNaut miles runAvg speedWind from/ knotsBaromVisibWave heightAir tempDewpointWater temp
2017-Feb-21 11:33N 01°15' E 103°41'4 3.5
2017-Feb-21 10:33N 01°18' E 103°44'0 0.0
2017-Feb-21 07:31N 01°18' E 103°44'0 0.0
2017-Feb-21 04:31N 01°18' E 103°44'0 0.0
2017-Feb-21 00:31N 01°18' E 103°44'0 0.0
2017-Feb-20 22:31N 01°18' E 103°44'0 0.0
2017-Feb-20 19:33N 01°18' E 103°44'5 5.2
2017-Feb-20 18:29N 01°13' E 103°41'3 0.3
2017-Feb-20 08:28N 01°11' E 103°43'0 0.2
2017-Feb-20 07:16N 01°11' E 103°42'2 2.9
2017-Feb-20 06:30N 01°11' E 103°40'5 3.3
2017-Feb-20 05:05N 01°15' E 103°43'0 0.0
2017-Feb-20 04:17N 01°15' E 103°43'0 0.0
2017-Feb-19 22:08N 01°15' E 103°43'0 0.0
2017-Feb-19 12:23N 01°15' E 103°43'3 3.3
2017-Feb-19 11:33N 01°13' E 103°42'1 0.8
2017-Feb-19 10:30N 01°12' E 103°41'0 0.0
2017-Feb-19 09:15N 01°12' E 103°41'0 0.1
2017-Feb-19 08:18N 01°12' E 103°41'2 2.4
2017-Feb-19 07:32N 01°10' E 103°41'1111.0
2017-Feb-19 06:33N 01°12' E 103°52'1513.5
2017-Feb-19 05:27N 01°20' E 104°05'12 1.7
2017-Feb-18 22:05N 01°26' E 103°54'0 0.0
2017-Feb-18 21:11N 01°26' E 103°54'0 0.0
2017-Feb-18 20:29N 01°26' E 103°54'0 0.0
2017-Feb-18 19:15N 01°26' E 103°54'2 2.4
2017-Feb-18 18:25N 01°25' E 103°56'910.5
2017-Feb-18 17:32N 01°21' E 104°04'3 1.4
2017-Feb-18 15:32N 01°19' E 104°06'0 0.0
2017-Feb-18 10:26N 01°19' E 104°06'0 0.0
2017-Feb-18 09:29N 01°19' E 104°06'0 0.0
2017-Feb-17 17:29N 01°19' E 104°06'0 0.0
2017-Feb-17 13:08N 01°19' E 104°06'0 0.0
2017-Feb-17 08:17N 01°19' E 104°06'  
2017-Feb-13 03:33N 22°29' E 119°53'1616.4
2017-Feb-13 02:33N 22°37' E 120°09'  
Track history (hours):
 
Tides and Currents Weather Stations Pressure Air Temp Water Temp Dewpoint Dewpoint Depression Visibility Wind Speed Wind Dir Waves Ship Positions

Stolt Effort

Last reported at 2017-Feb-21 11:33 UTC. Time now 2017-Feb-21 14:34 UTC.
Position N 01°15' E 103°41'.

Length 176 m; draft 7.6 m.

Type: Ship. MMSI: 319445000.

Date/timePositionNaut miles runAvg speedWind from/ knotsBaromVisibWave heightAir tempDewpointWater temp
2017-Feb-21 11:33N 01°15' E 103°41'4 3.5
2017-Feb-21 10:33N 01°18' E 103°44'0 0.0
2017-Feb-21 07:31N 01°18' E 103°44'0 0.0
2017-Feb-21 04:31N 01°18' E 103°44'0 0.0
2017-Feb-21 00:31N 01°18' E 103°44'0 0.0
2017-Feb-20 22:31N 01°18' E 103°44'0 0.0
2017-Feb-20 19:33N 01°18' E 103°44'5 5.2
2017-Feb-20 18:29N 01°13' E 103°41'3 0.3
2017-Feb-20 08:28N 01°11' E 103°43'0 0.2
2017-Feb-20 07:16N 01°11' E 103°42'2 2.9
2017-Feb-20 06:30N 01°11' E 103°40'5 3.3
2017-Feb-20 05:05N 01°15' E 103°43'0 0.0
2017-Feb-20 04:17N 01°15' E 103°43'0 0.0
2017-Feb-19 22:08N 01°15' E 103°43'0 0.0
2017-Feb-19 12:23N 01°15' E 103°43'3 3.3
2017-Feb-19 11:33N 01°13' E 103°42'1 0.8
2017-Feb-19 10:30N 01°12' E 103°41'0 0.0
2017-Feb-19 09:15N 01°12' E 103°41'0 0.1
2017-Feb-19 08:18N 01°12' E 103°41'2 2.4
2017-Feb-19 07:32N 01°10' E 103°41'1111.0
2017-Feb-19 06:33N 01°12' E 103°52'1513.5
2017-Feb-19 05:27N 01°20' E 104°05'12 1.7
2017-Feb-18 22:05N 01°26' E 103°54'0 0.0
2017-Feb-18 21:11N 01°26' E 103°54'0 0.0
2017-Feb-18 20:29N 01°26' E 103°54'0 0.0
2017-Feb-18 19:15N 01°26' E 103°54'2 2.4
2017-Feb-18 18:25N 01°25' E 103°56'910.5
2017-Feb-18 17:32N 01°21' E 104°04'3 1.4
2017-Feb-18 15:32N 01°19' E 104°06'0 0.0
2017-Feb-18 10:26N 01°19' E 104°06'0 0.0
2017-Feb-18 09:29N 01°19' E 104°06'0 0.0
2017-Feb-17 17:29N 01°19' E 104°06'0 0.0
2017-Feb-17 13:08N 01°19' E 104°06'0 0.0
2017-Feb-17 08:17N 01°19' E 104°06'  
2017-Feb-13 03:33N 22°29' E 119°53'1616.4
2017-Feb-13 02:33N 22°37' E 120°09'  

Dump ship's entire track history